sensor_id;sensor_type;location;lat;lon;timestamp;P1;durP1;ratioP1;P2;durP2;ratioP2
21624;SDS011;10974;51.034;3.744;2022-11-15T04:18:59;5.87;;;3.20;;
21624;SDS011;10974;51.034;3.744;2022-11-15T04:21:43;6.13;;;3.00;;
21624;SDS011;10974;51.034;3.744;2022-11-15T04:24:27;6.60;;;3.17;;
21624;SDS011;10974;51.034;3.744;2022-11-15T04:26:53;6.97;;;3.53;;
21624;SDS011;10974;51.034;3.744;2022-11-15T04:29:18;5.37;;;3.30;;
21624;SDS011;10974;51.034;3.744;2022-11-15T04:31:59;6.20;;;3.20;;
21624;SDS011;10974;51.034;3.744;2022-11-15T04:34:25;7.50;;;2.87;;
21624;SDS011;10974;51.034;3.744;2022-11-15T04:36:51;6.07;;;3.07;;
21624;SDS011;10974;51.034;3.744;2022-11-15T04:39:35;7.67;;;3.67;;
21624;SDS011;10974;51.034;3.744;2022-11-15T04:42:01;5.93;;;3.27;;
21624;SDS011;10974;51.034;3.744;2022-11-15T04:44:26;4.93;;;3.10;;
21624;SDS011;10974;51.034;3.744;2022-11-15T04:46:52;6.40;;;2.97;;
21624;SDS011;10974;51.034;3.744;2022-11-15T04:49:18;6.70;;;2.70;;
21624;SDS011;10974;51.034;3.744;2022-11-15T04:51:44;5.23;;;2.70;;
21624;SDS011;10974;51.034;3.744;2022-11-15T04:54:09;4.83;;;2.90;;
21624;SDS011;10974;51.034;3.744;2022-11-15T04:56:35;7.73;;;3.17;;
21624;SDS011;10974;51.034;3.744;2022-11-15T04:59:00;5.53;;;2.70;;
21624;SDS011;10974;51.034;3.744;2022-11-15T05:01:26;6.63;;;3.20;;
21624;SDS011;10974;51.034;3.744;2022-11-15T05:03:52;4.60;;;2.67;;
21624;SDS011;10974;51.034;3.744;2022-11-15T05:06:36;8.33;;;3.30;;
21624;SDS011;10974;51.034;3.744;2022-11-15T05:09:02;4.70;;;3.10;;
21624;SDS011;10974;51.034;3.744;2022-11-15T05:11:28;7.97;;;3.00;;
21624;SDS011;10974;51.034;3.744;2022-11-15T05:13:54;4.30;;;3.07;;
21624;SDS011;10974;51.034;3.744;2022-11-15T05:16:20;10.83;;;3.70;;
21624;SDS011;10974;51.034;3.744;2022-11-15T05:18:46;7.40;;;3.50;;
21624;SDS011;10974;51.034;3.744;2022-11-15T05:21:13;5.30;;;3.10;;
21624;SDS011;10974;51.034;3.744;2022-11-15T05:23:40;7.07;;;3.53;;
21624;SDS011;10974;51.034;3.744;2022-11-15T05:26:06;6.10;;;3.10;;
21624;SDS011;10974;51.034;3.744;2022-11-15T05:28:36;6.30;;;3.53;;
21624;SDS011;10974;51.034;3.744;2022-11-15T05:31:09;4.60;;;2.80;;
21624;SDS011;10974;51.034;3.744;2022-11-15T05:33:37;7.57;;;3.87;;
21624;SDS011;10974;51.034;3.744;2022-11-15T05:38:36;6.80;;;2.60;;
21624;SDS011;10974;51.034;3.744;2022-11-15T05:41:02;4.20;;;2.70;;
21624;SDS011;10974;51.034;3.744;2022-11-15T05:43:30;12.00;;;3.17;;
21624;SDS011;10974;51.034;3.744;2022-11-15T05:45:57;7.50;;;3.07;;
21624;SDS011;10974;51.034;3.744;2022-11-15T05:48:24;7.87;;;2.60;;
21624;SDS011;10974;51.034;3.744;2022-11-15T05:50:50;6.80;;;3.10;;
21624;SDS011;10974;51.034;3.744;2022-11-15T05:53:18;6.97;;;2.37;;
21624;SDS011;10974;51.034;3.744;2022-11-15T05:55:45;5.77;;;2.07;;
21624;SDS011;10974;51.034;3.744;2022-11-15T05:58:11;6.40;;;2.90;;
21624;SDS011;10974;51.034;3.744;2022-11-15T06:00:37;5.73;;;2.50;;
21624;SDS011;10974;51.034;3.744;2022-11-15T06:03:03;9.80;;;2.67;;
21624;SDS011;10974;51.034;3.744;2022-11-15T06:05:28;3.77;;;2.67;;
21624;SDS011;10974;51.034;3.744;2022-11-15T06:07:57;4.93;;;2.90;;
21624;SDS011;10974;51.034;3.744;2022-11-15T06:10:24;7.17;;;2.50;;
21624;SDS011;10974;51.034;3.744;2022-11-15T06:12:59;4.33;;;2.53;;
21624;SDS011;10974;51.034;3.744;2022-11-15T06:15:26;5.23;;;2.50;;
21624;SDS011;10974;51.034;3.744;2022-11-15T06:17:52;4.10;;;2.90;;
21624;SDS011;10974;51.034;3.744;2022-11-15T06:20:22;8.50;;;2.63;;
21624;SDS011;10974;51.034;3.744;2022-11-15T06:22:56;6.33;;;3.13;;
21624;SDS011;10974;51.034;3.744;2022-11-15T06:25:22;5.53;;;2.67;;
21624;SDS011;10974;51.034;3.744;2022-11-15T06:27:52;4.73;;;3.03;;
21624;SDS011;10974;51.034;3.744;2022-11-15T06:30:18;4.57;;;2.47;;
21624;SDS011;10974;51.034;3.744;2022-11-15T06:32:44;5.30;;;2.63;;
21624;SDS011;10974;51.034;3.744;2022-11-15T06:35:10;3.40;;;2.60;;
21624;SDS011;10974;51.034;3.744;2022-11-15T06:37:36;4.37;;;2.70;;
21624;SDS011;10974;51.034;3.744;2022-11-15T06:40:01;3.80;;;2.50;;
21624;SDS011;10974;51.034;3.744;2022-11-15T06:42:27;4.83;;;2.87;;
21624;SDS011;10974;51.034;3.744;2022-11-15T06:44:53;5.00;;;2.80;;
21624;SDS011;10974;51.034;3.744;2022-11-15T06:47:18;7.80;;;3.10;;
21624;SDS011;10974;51.034;3.744;2022-11-15T06:49:44;5.27;;;4.10;;
21624;SDS011;10974;51.034;3.744;2022-11-15T06:52:09;8.30;;;3.20;;
21624;SDS011;10974;51.034;3.744;2022-11-15T06:54:35;4.27;;;3.00;;
21624;SDS011;10974;51.034;3.744;2022-11-15T06:57:01;8.23;;;2.77;;
21624;SDS011;10974;51.034;3.744;2022-11-15T06:59:26;5.10;;;3.10;;
21624;SDS011;10974;51.034;3.744;2022-11-15T07:01:52;5.33;;;2.57;;
21624;SDS011;10974;51.034;3.744;2022-11-15T07:04:18;4.33;;;2.90;;
21624;SDS011;10974;51.034;3.744;2022-11-15T07:06:45;4.13;;;2.93;;
21624;SDS011;10974;51.034;3.744;2022-11-15T07:09:12;4.70;;;2.60;;
21624;SDS011;10974;51.034;3.744;2022-11-15T07:11:38;5.30;;;3.10;;
21624;SDS011;10974;51.034;3.744;2022-11-15T07:14:04;6.70;;;3.33;;
21624;SDS011;10974;51.034;3.744;2022-11-15T07:16:29;5.20;;;2.77;;
21624;SDS011;10974;51.034;3.744;2022-11-15T07:18:55;4.40;;;2.83;;
21624;SDS011;10974;51.034;3.744;2022-11-15T07:21:21;3.93;;;2.83;;
21624;SDS011;10974;51.034;3.744;2022-11-15T07:23:46;3.63;;;2.73;;
21624;SDS011;10974;51.034;3.744;2022-11-15T07:26:12;7.00;;;3.00;;
21624;SDS011;10974;51.034;3.744;2022-11-15T07:28:38;5.37;;;2.80;;
21624;SDS011;10974;51.034;3.744;2022-11-15T07:31:04;4.60;;;2.57;;
21624;SDS011;10974;51.034;3.744;2022-11-15T07:33:31;5.73;;;2.50;;
21624;SDS011;10974;51.034;3.744;2022-11-15T07:36:00;3.43;;;2.63;;
21624;SDS011;10974;51.034;3.744;2022-11-15T07:38:28;4.77;;;2.43;;
21624;SDS011;10974;51.034;3.744;2022-11-15T07:40:57;3.80;;;2.63;;
21624;SDS011;10974;51.034;3.744;2022-11-15T07:43:24;4.03;;;2.63;;
21624;SDS011;10974;51.034;3.744;2022-11-15T07:45:49;5.13;;;2.93;;
21624;SDS011;10974;51.034;3.744;2022-11-15T07:48:15;5.03;;;2.70;;
21624;SDS011;10974;51.034;3.744;2022-11-15T07:50:41;4.40;;;2.70;;
21624;SDS011;10974;51.034;3.744;2022-11-15T07:53:07;6.30;;;2.70;;
21624;SDS011;10974;51.034;3.744;2022-11-15T07:55:34;5.40;;;2.63;;
21624;SDS011;10974;51.034;3.744;2022-11-15T07:58:04;4.60;;;2.73;;
21624;SDS011;10974;51.034;3.744;2022-11-15T08:00:31;8.57;;;2.90;;
21624;SDS011;10974;51.034;3.744;2022-11-15T08:03:10;6.07;;;2.77;;
21624;SDS011;10974;51.034;3.744;2022-11-15T08:05:38;5.50;;;2.50;;
21624;SDS011;10974;51.034;3.744;2022-11-15T08:08:05;3.33;;;2.57;;
21624;SDS011;10974;51.034;3.744;2022-11-15T08:10:32;8.70;;;2.90;;
21624;SDS011;10974;51.034;3.744;2022-11-15T08:12:59;6.40;;;2.60;;
21624;SDS011;10974;51.034;3.744;2022-11-15T08:15:26;9.17;;;3.17;;
21624;SDS011;10974;51.034;3.744;2022-11-15T08:17:53;6.67;;;2.70;;
21624;SDS011;10974;51.034;3.744;2022-11-15T08:20:22;6.13;;;2.90;;
21624;SDS011;10974;51.034;3.744;2022-11-15T08:22:49;7.57;;;2.60;;
21624;SDS011;10974;51.034;3.744;2022-11-15T08:25:15;5.60;;;3.17;;
21624;SDS011;10974;51.034;3.744;2022-11-15T08:27:41;5.23;;;2.80;;
21624;SDS011;10974;51.034;3.744;2022-11-15T08:30:07;4.20;;;2.77;;
21624;SDS011;10974;51.034;3.744;2022-11-15T08:32:33;5.93;;;2.70;;
21624;SDS011;10974;51.034;3.744;2022-11-15T08:34:58;6.53;;;2.70;;
21624;SDS011;10974;51.034;3.744;2022-11-15T08:37:24;7.50;;;2.60;;
21624;SDS011;10974;51.034;3.744;2022-11-15T08:39:50;5.20;;;2.63;;
21624;SDS011;10974;51.034;3.744;2022-11-15T08:42:15;4.20;;;2.10;;
21624;SDS011;10974;51.034;3.744;2022-11-15T08:44:41;2.60;;;2.13;;
21624;SDS011;10974;51.034;3.744;2022-11-15T08:47:07;4.43;;;2.67;;
21624;SDS011;10974;51.034;3.744;2022-11-15T08:49:36;5.43;;;2.67;;
21624;SDS011;10974;51.034;3.744;2022-11-15T08:52:02;6.10;;;2.50;;
21624;SDS011;10974;51.034;3.744;2022-11-15T08:54:27;4.70;;;2.20;;
21624;SDS011;10974;51.034;3.744;2022-11-15T08:56:53;5.13;;;2.53;;
21624;SDS011;10974;51.034;3.744;2022-11-15T08:59:19;6.40;;;2.20;;
21624;SDS011;10974;51.034;3.744;2022-11-15T09:01:44;5.90;;;2.60;;
21624;SDS011;10974;51.034;3.744;2022-11-15T09:04:10;9.10;;;3.10;;
21624;SDS011;10974;51.034;3.744;2022-11-15T09:06:36;6.47;;;2.23;;
21624;SDS011;10974;51.034;3.744;2022-11-15T09:09:01;7.60;;;2.23;;
21624;SDS011;10974;51.034;3.744;2022-11-15T09:11:27;5.23;;;2.00;;
21624;SDS011;10974;51.034;3.744;2022-11-15T09:13:53;3.40;;;1.90;;
21624;SDS011;10974;51.034;3.744;2022-11-15T09:16:19;4.50;;;1.90;;
21624;SDS011;10974;51.034;3.744;2022-11-15T09:18:45;5.20;;;2.27;;
21624;SDS011;10974;51.034;3.744;2022-11-15T09:21:11;3.67;;;2.00;;
21624;SDS011;10974;51.034;3.744;2022-11-15T09:23:36;4.20;;;2.33;;
21624;SDS011;10974;51.034;3.744;2022-11-15T09:26:03;6.87;;;1.93;;
21624;SDS011;10974;51.034;3.744;2022-11-15T09:28:30;7.00;;;2.50;;
21624;SDS011;10974;51.034;3.744;2022-11-15T09:31:01;7.13;;;2.00;;
21624;SDS011;10974;51.034;3.744;2022-11-15T09:33:28;5.67;;;2.33;;
21624;SDS011;10974;51.034;3.744;2022-11-15T09:35:58;7.73;;;3.07;;
21624;SDS011;10974;51.034;3.744;2022-11-15T09:38:26;7.60;;;2.27;;
21624;SDS011;10974;51.034;3.744;2022-11-15T09:40:52;7.53;;;1.90;;
21624;SDS011;10974;51.034;3.744;2022-11-15T10:00:22;7.67;;;2.93;;
21624;SDS011;10974;51.034;3.744;2022-11-15T10:03:11;3.27;;;1.90;;
21624;SDS011;10974;51.034;3.744;2022-11-15T10:05:40;6.67;;;2.20;;
21624;SDS011;10974;51.034;3.744;2022-11-15T10:10:55;8.10;;;2.17;;
21624;SDS011;10974;51.034;3.744;2022-11-15T10:13:23;5.93;;;1.80;;
21624;SDS011;10974;51.034;3.744;2022-11-15T10:16:07;6.40;;;1.83;;
21624;SDS011;10974;51.034;3.744;2022-11-15T10:24:23;9.23;;;2.33;;
21624;SDS011;10974;51.034;3.744;2022-11-15T10:26:55;5.10;;;2.00;;
21624;SDS011;10974;51.034;3.744;2022-11-15T10:29:22;3.27;;;2.10;;
21624;SDS011;10974;51.034;3.744;2022-11-15T10:31:49;5.53;;;1.90;;
21624;SDS011;10974;51.034;3.744;2022-11-15T10:34:19;6.80;;;2.37;;
21624;SDS011;10974;51.034;3.744;2022-11-15T10:36:56;5.70;;;1.50;;
21624;SDS011;10974;51.034;3.744;2022-11-15T10:39:24;3.97;;;1.60;;
21624;SDS011;10974;51.034;3.744;2022-11-15T10:41:51;7.37;;;2.17;;
21624;SDS011;10974;51.034;3.744;2022-11-15T10:47:07;7.20;;;1.83;;
21624;SDS011;10974;51.034;3.744;2022-11-15T10:49:59;6.87;;;2.10;;
21624;SDS011;10974;51.034;3.744;2022-11-15T10:52:30;6.13;;;2.23;;
21624;SDS011;10974;51.034;3.744;2022-11-15T10:57:38;4.83;;;1.60;;
21624;SDS011;10974;51.034;3.744;2022-11-15T11:00:06;4.50;;;1.97;;
21624;SDS011;10974;51.034;3.744;2022-11-15T11:05:30;6.30;;;2.07;;
21624;SDS011;10974;51.034;3.744;2022-11-15T11:10:59;4.57;;;1.90;;
21624;SDS011;10974;51.034;3.744;2022-11-15T11:13:29;6.40;;;1.57;;
21624;SDS011;10974;51.034;3.744;2022-11-15T11:21:11;6.10;;;1.97;;
21624;SDS011;10974;51.034;3.744;2022-11-15T11:35:09;4.70;;;1.50;;
21624;SDS011;10974;51.034;3.744;2022-11-15T11:41:13;5.47;;;1.80;;
21624;SDS011;10974;51.034;3.744;2022-11-15T11:48:44;6.43;;;1.80;;
21624;SDS011;10974;51.034;3.744;2022-11-15T11:51:24;3.73;;;1.70;;
21624;SDS011;10974;51.034;3.744;2022-11-15T11:54:22;6.27;;;2.00;;
21624;SDS011;10974;51.034;3.744;2022-11-15T11:57:25;4.70;;;1.60;;
21624;SDS011;10974;51.034;3.744;2022-11-15T12:05:37;5.03;;;1.50;;
21624;SDS011;10974;51.034;3.744;2022-11-15T12:11:17;8.00;;;1.90;;
21624;SDS011;10974;51.034;3.744;2022-11-15T12:13:50;5.17;;;2.00;;
21624;SDS011;10974;51.034;3.744;2022-11-15T12:16:24;6.63;;;1.73;;
21624;SDS011;10974;51.034;3.744;2022-11-15T12:18:53;8.73;;;2.27;;
21624;SDS011;10974;51.034;3.744;2022-11-15T12:24:25;7.80;;;2.10;;
21624;SDS011;10974;51.034;3.744;2022-11-15T12:27:05;6.10;;;1.77;;
21624;SDS011;10974;51.034;3.744;2022-11-15T12:29:44;4.00;;;1.57;;
21624;SDS011;10974;51.034;3.744;2022-11-15T12:32:18;7.00;;;2.03;;
21624;SDS011;10974;51.034;3.744;2022-11-15T12:34:51;4.73;;;1.90;;
21624;SDS011;10974;51.034;3.744;2022-11-15T12:37:46;5.80;;;1.80;;
21624;SDS011;10974;51.034;3.744;2022-11-15T12:58:46;6.77;;;1.97;;
21624;SDS011;10974;51.034;3.744;2022-11-15T13:06:49;6.90;;;1.80;;
21624;SDS011;10974;51.034;3.744;2022-11-15T13:11:57;6.23;;;2.17;;
21624;SDS011;10974;51.034;3.744;2022-11-15T13:14:39;7.43;;;2.37;;
21624;SDS011;10974;51.034;3.744;2022-11-15T13:19:44;6.93;;;1.63;;
21624;SDS011;10974;51.034;3.744;2022-11-15T13:22:12;3.67;;;1.90;;
21624;SDS011;10974;51.034;3.744;2022-11-15T13:24:57;3.33;;;2.07;;
21624;SDS011;10974;51.034;3.744;2022-11-15T13:27:25;6.10;;;1.93;;
21624;SDS011;10974;51.034;3.744;2022-11-15T13:29:51;4.77;;;1.50;;
21624;SDS011;10974;51.034;3.744;2022-11-15T13:32:18;5.90;;;1.67;;
21624;SDS011;10974;51.034;3.744;2022-11-15T13:34:47;4.53;;;2.17;;
21624;SDS011;10974;51.034;3.744;2022-11-15T13:39:46;4.47;;;1.77;;
21624;SDS011;10974;51.034;3.744;2022-11-15T13:42:16;4.53;;;1.70;;
21624;SDS011;10974;51.034;3.744;2022-11-15T13:44:57;3.20;;;1.57;;
21624;SDS011;10974;51.034;3.744;2022-11-15T13:47:27;3.80;;;2.03;;
21624;SDS011;10974;51.034;3.744;2022-11-15T13:49:57;3.47;;;1.90;;
21624;SDS011;10974;51.034;3.744;2022-11-15T13:52:25;2.80;;;1.97;;
21624;SDS011;10974;51.034;3.744;2022-11-15T13:57:45;3.43;;;2.13;;
21624;SDS011;10974;51.034;3.744;2022-11-15T14:03:07;3.57;;;1.90;;
21624;SDS011;10974;51.034;3.744;2022-11-15T14:05:40;4.70;;;2.17;;
21624;SDS011;10974;51.034;3.744;2022-11-15T14:10:40;3.83;;;1.87;;
21624;SDS011;10974;51.034;3.744;2022-11-15T14:13:10;6.47;;;2.10;;
21624;SDS011;10974;51.034;3.744;2022-11-15T14:15:52;3.70;;;1.73;;
21624;SDS011;10974;51.034;3.744;2022-11-15T14:21:10;3.40;;;1.67;;
21624;SDS011;10974;51.034;3.744;2022-11-15T14:23:36;4.03;;;1.70;;
21624;SDS011;10974;51.034;3.744;2022-11-15T14:26:01;3.70;;;2.17;;
21624;SDS011;10974;51.034;3.744;2022-11-15T14:28:29;3.73;;;2.43;;
21624;SDS011;10974;51.034;3.744;2022-11-15T14:30:58;4.73;;;2.40;;
21624;SDS011;10974;51.034;3.744;2022-11-15T14:33:27;4.10;;;2.43;;
21624;SDS011;10974;51.034;3.744;2022-11-15T14:35:58;1.70;;;1.60;;
21624;SDS011;10974;51.034;3.744;2022-11-15T14:38:35;7.53;;;2.20;;
21624;SDS011;10974;51.034;3.744;2022-11-15T14:41:01;9.40;;;2.40;;
21624;SDS011;10974;51.034;3.744;2022-11-15T14:43:26;6.50;;;2.50;;
21624;SDS011;10974;51.034;3.744;2022-11-15T14:45:52;7.23;;;1.90;;
21624;SDS011;10974;51.034;3.744;2022-11-15T14:48:18;6.23;;;2.17;;
21624;SDS011;10974;51.034;3.744;2022-11-15T14:50:43;4.77;;;1.80;;
21624;SDS011;10974;51.034;3.744;2022-11-15T14:53:13;4.90;;;1.83;;
21624;SDS011;10974;51.034;3.744;2022-11-15T14:55:41;3.23;;;2.00;;
21624;SDS011;10974;51.034;3.744;2022-11-15T14:58:07;3.90;;;1.87;;
21624;SDS011;10974;51.034;3.744;2022-11-15T15:00:33;4.30;;;2.17;;
21624;SDS011;10974;51.034;3.744;2022-11-15T15:03:00;5.20;;;2.10;;
21624;SDS011;10974;51.034;3.744;2022-11-15T15:05:42;2.23;;;2.03;;
21624;SDS011;10974;51.034;3.744;2022-11-15T15:08:09;3.57;;;2.10;;
21624;SDS011;10974;51.034;3.744;2022-11-15T15:10:39;5.77;;;2.30;;
21624;SDS011;10974;51.034;3.744;2022-11-15T15:13:25;4.60;;;2.90;;
21624;SDS011;10974;51.034;3.744;2022-11-15T15:15:51;3.63;;;2.17;;
21624;SDS011;10974;51.034;3.744;2022-11-15T15:18:17;101.87;;;5.10;;
21624;SDS011;10974;51.034;3.744;2022-11-15T15:20:43;2.83;;;2.53;;
21624;SDS011;10974;51.034;3.744;2022-11-15T15:23:15;4.23;;;2.43;;
21624;SDS011;10974;51.034;3.744;2022-11-15T15:25:42;7.90;;;3.03;;
21624;SDS011;10974;51.034;3.744;2022-11-15T15:28:08;2.93;;;2.10;;
21624;SDS011;10974;51.034;3.744;2022-11-15T15:30:34;8.40;;;2.93;;
21624;SDS011;10974;51.034;3.744;2022-11-15T15:33:00;5.40;;;2.77;;
21624;SDS011;10974;51.034;3.744;2022-11-15T15:35:29;3.60;;;2.50;;
21624;SDS011;10974;51.034;3.744;2022-11-15T15:37:56;9.20;;;2.70;;
21624;SDS011;10974;51.034;3.744;2022-11-15T15:40:23;3.47;;;2.30;;
21624;SDS011;10974;51.034;3.744;2022-11-15T15:42:49;6.53;;;3.17;;
21624;SDS011;10974;51.034;3.744;2022-11-15T15:45:16;4.10;;;2.70;;
21624;SDS011;10974;51.034;3.744;2022-11-15T15:47:43;6.43;;;3.07;;
21624;SDS011;10974;51.034;3.744;2022-11-15T15:52:55;5.60;;;3.03;;
21624;SDS011;10974;51.034;3.744;2022-11-15T15:55:26;4.47;;;2.83;;
21624;SDS011;10974;51.034;3.744;2022-11-15T15:57:52;3.50;;;2.23;;
21624;SDS011;10974;51.034;3.744;2022-11-15T16:00:19;5.37;;;2.80;;
21624;SDS011;10974;51.034;3.744;2022-11-15T16:02:45;3.90;;;2.93;;
21624;SDS011;10974;51.034;3.744;2022-11-15T16:05:11;4.03;;;2.50;;
21624;SDS011;10974;51.034;3.744;2022-11-15T16:07:38;4.87;;;2.77;;
21624;SDS011;10974;51.034;3.744;2022-11-15T16:10:24;2.73;;;2.37;;
21624;SDS011;10974;51.034;3.744;2022-11-15T16:12:55;3.80;;;2.13;;
21624;SDS011;10974;51.034;3.744;2022-11-15T16:15:22;5.53;;;2.57;;
21624;SDS011;10974;51.034;3.744;2022-11-15T16:17:51;3.83;;;2.67;;
21624;SDS011;10974;51.034;3.744;2022-11-15T16:20:29;3.37;;;2.23;;
21624;SDS011;10974;51.034;3.744;2022-11-15T16:22:55;3.23;;;2.10;;
21624;SDS011;10974;51.034;3.744;2022-11-15T16:25:21;5.37;;;2.60;;
21624;SDS011;10974;51.034;3.744;2022-11-15T16:27:47;2.77;;;2.20;;
21624;SDS011;10974;51.034;3.744;2022-11-15T16:30:14;5.60;;;2.50;;
21624;SDS011;10974;51.034;3.744;2022-11-15T16:32:41;3.03;;;1.90;;
21624;SDS011;10974;51.034;3.744;2022-11-15T16:35:10;2.53;;;2.03;;
21624;SDS011;10974;51.034;3.744;2022-11-15T16:37:39;3.40;;;2.53;;
21624;SDS011;10974;51.034;3.744;2022-11-15T16:40:48;2.60;;;2.40;;
21624;SDS011;10974;51.034;3.744;2022-11-15T16:42:58;4.80;;;2.20;;
21624;SDS011;10974;51.034;3.744;2022-11-15T16:45:26;2.37;;;2.17;;
21624;SDS011;10974;51.034;3.744;2022-11-15T16:47:55;3.50;;;2.20;;
21624;SDS011;10974;51.034;3.744;2022-11-15T16:50:27;2.87;;;2.40;;
21624;SDS011;10974;51.034;3.744;2022-11-15T16:52:56;2.90;;;2.60;;
21624;SDS011;10974;51.034;3.744;2022-11-15T16:55:23;3.10;;;2.70;;
21624;SDS011;10974;51.034;3.744;2022-11-15T16:57:51;4.60;;;3.00;;
21624;SDS011;10974;51.034;3.744;2022-11-15T17:00:19;5.10;;;3.00;;
21624;SDS011;10974;51.034;3.744;2022-11-15T17:02:46;4.60;;;3.07;;
21624;SDS011;10974;51.034;3.744;2022-11-15T17:05:13;3.93;;;2.87;;
21624;SDS011;10974;51.034;3.744;2022-11-15T17:07:40;5.47;;;3.57;;
21624;SDS011;10974;51.034;3.744;2022-11-15T17:10:06;5.80;;;2.60;;
21624;SDS011;10974;51.034;3.744;2022-11-15T17:12:35;4.70;;;3.20;;
21624;SDS011;10974;51.034;3.744;2022-11-15T17:15:01;4.87;;;2.73;;
21624;SDS011;10974;51.034;3.744;2022-11-15T17:17:28;3.43;;;2.60;;
21624;SDS011;10974;51.034;3.744;2022-11-15T17:19:54;4.23;;;2.80;;
21624;SDS011;10974;51.034;3.744;2022-11-15T17:22:20;3.17;;;2.60;;
21624;SDS011;10974;51.034;3.744;2022-11-15T17:24:46;6.37;;;3.27;;
21624;SDS011;10974;51.034;3.744;2022-11-15T17:27:11;4.97;;;3.10;;
21624;SDS011;10974;51.034;3.744;2022-11-15T17:29:37;4.47;;;2.80;;
21624;SDS011;10974;51.034;3.744;2022-11-15T17:32:03;4.40;;;2.73;;
21624;SDS011;10974;51.034;3.744;2022-11-15T17:34:29;3.40;;;2.67;;
21624;SDS011;10974;51.034;3.744;2022-11-15T17:36:54;2.50;;;2.30;;
21624;SDS011;10974;51.034;3.744;2022-11-15T17:39:20;2.60;;;2.13;;
21624;SDS011;10974;51.034;3.744;2022-11-15T17:41:47;3.87;;;2.63;;
21624;SDS011;10974;51.034;3.744;2022-11-15T17:44:14;3.10;;;2.70;;
21624;SDS011;10974;51.034;3.744;2022-11-15T17:46:39;5.07;;;3.07;;
21624;SDS011;10974;51.034;3.744;2022-11-15T17:49:05;3.37;;;2.30;;
21624;SDS011;10974;51.034;3.744;2022-11-15T17:51:31;2.73;;;2.53;;
21624;SDS011;10974;51.034;3.744;2022-11-15T17:53:57;3.17;;;2.87;;
21624;SDS011;10974;51.034;3.744;2022-11-15T17:56:24;3.03;;;2.50;;
21624;SDS011;10974;51.034;3.744;2022-11-15T17:58:54;3.33;;;2.70;;
21624;SDS011;10974;51.034;3.744;2022-11-15T18:03:49;2.80;;;2.40;;
21624;SDS011;10974;51.034;3.744;2022-11-15T18:06:16;3.80;;;2.90;;
21624;SDS011;10974;51.034;3.744;2022-11-15T18:08:44;3.13;;;2.83;;
21624;SDS011;10974;51.034;3.744;2022-11-15T18:11:18;3.50;;;2.97;;
21624;SDS011;10974;51.034;3.744;2022-11-15T18:13:47;3.30;;;2.70;;
21624;SDS011;10974;51.034;3.744;2022-11-15T18:16:18;3.40;;;2.57;;
21624;SDS011;10974;51.034;3.744;2022-11-15T18:18:46;4.13;;;2.93;;
21624;SDS011;10974;51.034;3.744;2022-11-15T18:21:15;5.40;;;3.30;;
21624;SDS011;10974;51.034;3.744;2022-11-15T18:23:44;3.10;;;2.80;;
21624;SDS011;10974;51.034;3.744;2022-11-15T18:26:14;3.67;;;3.17;;
21624;SDS011;10974;51.034;3.744;2022-11-15T18:28:41;4.07;;;2.90;;
21624;SDS011;10974;51.034;3.744;2022-11-15T18:31:15;6.40;;;3.53;;
21624;SDS011;10974;51.034;3.744;2022-11-15T18:33:43;5.10;;;3.53;;
21624;SDS011;10974;51.034;3.744;2022-11-15T18:36:11;4.03;;;3.30;;
21624;SDS011;10974;51.034;3.744;2022-11-15T18:38:37;6.33;;;3.10;;
21624;SDS011;10974;51.034;3.744;2022-11-15T18:41:05;4.23;;;3.13;;
21624;SDS011;10974;51.034;3.744;2022-11-15T18:43:32;3.80;;;3.03;;
21624;SDS011;10974;51.034;3.744;2022-11-15T18:46:01;4.27;;;3.00;;
21624;SDS011;10974;51.034;3.744;2022-11-15T18:48:29;3.87;;;2.67;;
21624;SDS011;10974;51.034;3.744;2022-11-15T18:51:11;5.03;;;3.73;;
21624;SDS011;10974;51.034;3.744;2022-11-15T18:53:38;3.87;;;3.40;;
21624;SDS011;10974;51.034;3.744;2022-11-15T18:56:12;5.53;;;3.50;;
21624;SDS011;10974;51.034;3.744;2022-11-15T18:58:40;3.83;;;3.43;;
21624;SDS011;10974;51.034;3.744;2022-11-15T19:01:12;3.67;;;3.27;;
21624;SDS011;10974;51.034;3.744;2022-11-15T19:03:40;5.03;;;3.80;;
21624;SDS011;10974;51.034;3.744;2022-11-15T19:06:08;6.50;;;3.17;;
21624;SDS011;10974;51.034;3.744;2022-11-15T19:08:36;4.57;;;4.10;;
21624;SDS011;10974;51.034;3.744;2022-11-15T19:11:06;6.50;;;4.03;;
21624;SDS011;10974;51.034;3.744;2022-11-15T19:13:32;6.97;;;3.73;;
21624;SDS011;10974;51.034;3.744;2022-11-15T19:15:59;4.23;;;3.17;;
21624;SDS011;10974;51.034;3.744;2022-11-15T19:18:26;5.13;;;3.40;;
21624;SDS011;10974;51.034;3.744;2022-11-15T19:20:52;4.40;;;3.47;;
21624;SDS011;10974;51.034;3.744;2022-11-15T19:23:23;3.73;;;3.30;;
21624;SDS011;10974;51.034;3.744;2022-11-15T19:25:53;5.97;;;3.77;;
21624;SDS011;10974;51.034;3.744;2022-11-15T19:28:20;4.33;;;3.20;;
21624;SDS011;10974;51.034;3.744;2022-11-15T19:30:46;7.67;;;3.63;;
21624;SDS011;10974;51.034;3.744;2022-11-15T19:33:12;6.57;;;3.50;;
21624;SDS011;10974;51.034;3.744;2022-11-15T19:35:38;3.33;;;3.03;;
21624;SDS011;10974;51.034;3.744;2022-11-15T19:38:03;4.10;;;3.60;;
21624;SDS011;10974;51.034;3.744;2022-11-15T19:40:29;4.20;;;3.80;;
21624;SDS011;10974;51.034;3.744;2022-11-15T19:42:57;4.63;;;3.17;;
21624;SDS011;10974;51.034;3.744;2022-11-15T19:45:23;3.90;;;3.50;;
21624;SDS011;10974;51.034;3.744;2022-11-15T19:47:48;3.30;;;3.00;;
21624;SDS011;10974;51.034;3.744;2022-11-15T19:50:14;3.93;;;3.47;;
21624;SDS011;10974;51.034;3.744;2022-11-15T19:52:40;4.60;;;3.53;;
21624;SDS011;10974;51.034;3.744;2022-11-15T19:55:06;4.63;;;3.60;;
21624;SDS011;10974;51.034;3.744;2022-11-15T19:57:32;5.40;;;3.50;;
21624;SDS011;10974;51.034;3.744;2022-11-15T19:59:57;5.00;;;3.80;;
21624;SDS011;10974;51.034;3.744;2022-11-15T20:02:23;4.10;;;3.70;;
21624;SDS011;10974;51.034;3.744;2022-11-15T20:04:48;3.60;;;3.30;;
21624;SDS011;10974;51.034;3.744;2022-11-15T20:07:14;3.90;;;3.50;;
21624;SDS011;10974;51.034;3.744;2022-11-15T20:09:40;4.43;;;3.80;;
21624;SDS011;10974;51.034;3.744;2022-11-15T20:12:05;3.70;;;3.07;;
21624;SDS011;10974;51.034;3.744;2022-11-15T20:14:31;4.50;;;3.67;;
21624;SDS011;10974;51.034;3.744;2022-11-15T20:16:57;3.70;;;3.40;;
21624;SDS011;10974;51.034;3.744;2022-11-15T20:19:22;4.37;;;3.73;;
21624;SDS011;10974;51.034;3.744;2022-11-15T20:21:48;4.53;;;3.40;;
21624;SDS011;10974;51.034;3.744;2022-11-15T20:24:13;7.57;;;3.20;;
21624;SDS011;10974;51.034;3.744;2022-11-15T20:26:39;3.40;;;3.10;;
21624;SDS011;10974;51.034;3.744;2022-11-15T20:29:05;6.00;;;3.70;;
21624;SDS011;10974;51.034;3.744;2022-11-15T20:31:32;5.57;;;3.57;;
21624;SDS011;10974;51.034;3.744;2022-11-15T20:33:58;3.77;;;3.40;;
21624;SDS011;10974;51.034;3.744;2022-11-15T20:36:24;6.53;;;3.57;;
21624;SDS011;10974;51.034;3.744;2022-11-15T20:38:50;4.63;;;3.83;;
21624;SDS011;10974;51.034;3.744;2022-11-15T20:41:15;4.00;;;3.50;;
21624;SDS011;10974;51.034;3.744;2022-11-15T20:43:41;4.33;;;3.47;;
21624;SDS011;10974;51.034;3.744;2022-11-15T20:46:08;5.77;;;3.80;;
21624;SDS011;10974;51.034;3.744;2022-11-15T20:48:34;4.47;;;3.60;;
21624;SDS011;10974;51.034;3.744;2022-11-15T20:51:04;4.80;;;3.70;;
21624;SDS011;10974;51.034;3.744;2022-11-15T20:53:33;4.43;;;4.03;;
21624;SDS011;10974;51.034;3.744;2022-11-15T20:56:04;4.30;;;3.90;;
21624;SDS011;10974;51.034;3.744;2022-11-15T20:58:32;4.13;;;3.57;;
21624;SDS011;10974;51.034;3.744;2022-11-15T21:00:58;4.23;;;3.83;;
21624;SDS011;10974;51.034;3.744;2022-11-15T21:03:24;5.20;;;4.10;;
21624;SDS011;10974;51.034;3.744;2022-11-15T21:05:51;5.20;;;3.90;;
21624;SDS011;10974;51.034;3.744;2022-11-15T21:08:17;5.20;;;4.30;;
21624;SDS011;10974;51.034;3.744;2022-11-15T21:10:42;5.43;;;4.17;;
21624;SDS011;10974;51.034;3.744;2022-11-15T21:13:26;4.83;;;4.30;;
21624;SDS011;10974;51.034;3.744;2022-11-15T21:15:56;4.73;;;3.77;;
21624;SDS011;10974;51.034;3.744;2022-11-15T21:18:22;4.77;;;3.77;;